Latest Weather Observations for Yanakie

IDV60801

Issued at 3:22 pm EDT Tuesday 29 November 2022 (issued every 10 minutes, with the page automatically refreshed every 10 minutes)

About weather observations | Map of weather stations | Latest weather observations for VIC | Other Formats
Station Details ID: 085301 Name: YANAKIE Lat: -38.81 Lon: 146.19 Height: 13.3 m
Data from the previous 72 hours. | See also: Recent months at Yanakie
Date/Time
EDT
Temp
°C
App
Temp
°C
Dew
Point
°C
Rel
Hum
%
Delta-T
°C
Wind Press
QNH
hPa
Press
MSL
hPa
Rain since
9am
mm
Dir  Spd
km/h
Gust
km/h
Spd
kts
Gust
kts
29/03:00pm 17.0 11.4 8.9 59 4.2 WSW 28 43 15 23 1016.3 1016.3 0.0
29/02:30pm 16.8 10.8 8.5 58 4.2 W 30 39 16 21 1016.3 1016.3 0.0
29/02:00pm 16.9 10.9 8.8 59 4.2 W 30 39 16 21 1016.3 1016.3 0.0
29/01:30pm 16.6 10.3 9.1 61 3.9 W 32 43 17 23 1016.2 1016.2 0.0
29/01:00pm 16.1 10.3 7.8 58 4.2 WSW 28 39 15 21 1016.2 1016.2 0.0
29/12:30pm 16.1 10.0 8.3 60 4.0 W 30 39 16 21 1016.1 1016.1 0.0
29/12:00pm 14.9 9.5 9.5 70 2.8 WSW 28 39 15 21 1016.0 1016.0 0.0
29/11:30am 16.0 10.0 8.5 61 3.8 WSW 30 39 16 21 1015.7 1015.7 0.0
29/11:00am 14.4 9.5 8.6 68 2.9 WSW 24 33 13 18 1015.4 1015.4 0.0
29/10:30am 15.2 9.3 8.9 66 3.2 WSW 30 43 16 23 1015.1 1015.1 0.0
29/10:00am 15.6 10.1 9.1 65 3.3 WSW 28 39 15 21 1014.7 1014.7 0.0
29/09:30am 14.0 8.7 8.6 70 2.7 WSW 26 35 14 19 1014.5 1014.5 0.0
29/09:00am 14.5 8.5 8.7 68 2.9 WSW 30 41 16 22 1014.0 1014.0 4.0
29/08:30am 14.2 9.1 9.2 72 2.5 W 26 37 14 20 1013.3 1013.3 4.0
29/08:00am 13.8 8.6 9.0 73 2.4 W 26 35 14 19 1012.7 1012.7 4.0
29/07:30am 12.8 7.0 7.9 72 2.4 WSW 28 39 15 21 1012.3 1012.3 4.0
29/07:00am 12.6 7.2 8.1 74 2.2 WSW 26 35 14 19 1011.8 1011.8 4.0
29/06:30am 12.5 6.8 8.4 76 2.0 WSW 28 37 15 20 1011.5 1011.5 4.0
29/06:00am 11.7 7.0 7.8 77 1.9 WSW 22 30 12 16 1011.0 1011.0 4.0
29/05:30am 11.5 5.5 7.2 75 2.1 WSW 28 44 15 24 1010.4 1010.3 4.0
29/05:00am 11.9 6.2 8.2 78 1.8 WSW 28 41 15 22 1010.0 1009.9 4.0
29/04:30am 12.1 7.8 9.3 83 1.4 WSW 22 33 12 18 1009.8 1009.7 4.0
29/04:00am 11.7 6.5 8.9 83 1.4 WSW 26 35 14 19 1009.4 1009.3 4.0
29/03:30am 11.6 6.0 8.6 82 1.5 WSW 28 39 15 21 1009.3 1009.2 4.0
29/03:00am 11.6 7.4 9.7 88 1.0 WSW 22 33 12 18 1009.3 1009.2 4.0
29/02:30am 11.6 7.1 10.2 91 0.7 W 24 33 13 18 1009.1 1009.0 4.0
29/02:00am 11.5 7.7 11.0 97 0.3 WSW 22 33 12 18 1008.8 1008.7 4.0
29/01:30am 11.4 6.5 11.2 99 0.1 SW 28 39 15 21 1008.8 1008.7 4.0
29/01:00am 10.9 2.9 10.6 98 0.2 SW 43 72 23 39 1008.6 1008.5 3.8
29/12:54am 12.0 3.4 11.7 98 0.2 W 48 72 26 39 1008.5 1008.4 3.4
29/12:52am 12.4 3.9 12.1 98 0.2 W 48 72 26 39 1008.2 1008.1 2.8
29/12:35am 13.6 7.0 11.3 86 1.2 W 37 56 20 30 1007.9 1007.8 0.2
29/12:30am 13.6 6.6 11.1 85 1.3 W 39 54 21 29 1008.0 1007.9 0.2
29/12:07am 13.7 7.0 10.9 83 1.5 W 37 56 20 30 1007.6 1007.5 0.2
29/12:00am 13.6 6.8 10.8 83 1.5 W 37 50 20 27 1007.6 1007.5 0.2
 
Date/Time
EDT
Temp
°C
App
Temp
°C
Dew
Point
°C
Rel
Hum
%
Delta-T
°C
Wind Press
QNH
hPa
Press
MSL
hPa
Rain since
9am
mm
Dir  Spd
km/h
Gust
km/h
Spd
kts
Gust
kts
28/11:30pm 13.7 6.5 10.7 82 1.6 W 39 59 21 32 1007.6 1007.5 0.2
28/11:25pm 13.7 7.7 10.9 83 1.5 W 33 52 18 28 1007.6 1007.5 0.2
28/11:00pm 13.5 7.5 10.9 84 1.4 WNW 33 48 18 26 1007.5 1007.4 0.2
28/10:30pm 13.5 7.8 11.0 85 1.3 WNW 32 50 17 27 1007.5 1007.4 0.2
28/10:00pm 13.1 7.6 10.6 85 1.3 WNW 30 44 16 24 1007.5 1007.4 0.2
28/09:30pm 13.9 7.8 10.5 80 1.8 W 33 46 18 25 1007.4 1007.3 0.2
28/09:00pm 13.6 7.8 10.8 83 1.5 W 32 43 17 23 1007.0 1006.9 0.2
28/08:30pm 14.1 8.3 10.7 80 1.8 W 32 46 17 25 1006.9 1006.8 0.2
28/08:00pm 14.2 9.5 10.8 80 1.8 W 26 32 14 17 1006.8 1006.7 0.2
28/07:30pm 14.5 9.7 10.3 76 2.2 W 26 37 14 20 1006.5 1006.4 0.2
28/07:00pm 15.0 8.8 10.2 73 2.5 W 33 44 18 24 1006.4 1006.3 0.2
28/06:30pm 15.5 10.4 10.5 72 2.6 W 28 37 15 20 1006.1 1006.0 0.2
28/06:00pm 15.6 10.4 10.4 71 2.7 W 28 37 15 20 1006.0 1005.9 0.2
28/05:30pm 16.0 9.9 9.9 67 3.2 W 32 48 17 26 1006.0 1005.9 0.2
28/05:00pm 15.9 9.5 9.3 65 3.4 WNW 33 44 18 24 1006.2 1006.1 0.2
28/04:30pm 16.7 10.8 10.5 67 3.3 WNW 32 41 17 22 1006.1 1006.0 0.2
28/04:00pm 15.9 8.7 9.3 65 3.4 WNW 37 50 20 27 1006.3 1006.2 0.2
28/03:30pm 16.6 9.8 9.3 62 3.8 W 35 44 19 24 1006.2 1006.1 0.2
28/03:00pm 16.6 10.0 10.0 65 3.5 W 35 48 19 26 1006.6 1006.5 0.2
28/02:30pm 16.9 10.7 10.1 64 3.6 W 33 46 18 25 1006.7 1006.6 0.2
28/02:00pm 16.2 10.0 9.4 64 3.5 W 32 44 17 24 1006.9 1006.8 0.2
28/01:30pm 16.5 9.7 9.4 63 3.7 W 35 46 19 25 1007.0 1006.9 0.2
28/01:00pm 15.9 8.7 9.3 65 3.4 W 37 46 20 25 1007.3 1007.2 0.2
28/12:30pm 15.5 8.9 8.7 64 3.5 W 33 44 18 24 1007.3 1007.2 0.2
28/12:00pm 15.8 9.8 10.1 69 3.0 WNW 32 41 17 22 1007.2 1007.1 0.2
28/11:30am 15.6 9.8 9.5 67 3.2 W 30 39 16 21 1007.4 1007.3 0.2
28/11:00am 13.2 7.8 9.5 78 1.9 W 28 39 15 21 1007.7 1007.6 0.2
28/10:30am 13.5 8.6 9.9 79 1.9 NW 26 35 14 19 1007.7 1007.6 0.2
28/10:00am 13.6 10.0 11.7 88 1.0 WNW 22 28 12 15 1007.7 1007.6 0.2
28/09:30am 13.9 10.1 9.9 77 2.1 WNW 20 28 11 15 1007.5 1007.4 0.0
28/09:00am 11.6 7.9 9.3 86 1.2 NW 19 26 10 14 1007.5 1007.4 0.0
28/08:30am 11.0 7.2 9.8 92 0.6 NW 20 30 11 16 1007.6 1007.5 0.0
28/08:00am 12.3 8.3 9.1 81 1.6 WNW 20 28 11 15 1007.3 1007.2 0.0
28/07:30am 11.7 8.8 9.6 87 1.1 NW 15 24 8 13 1007.2 1007.1 0.0
28/07:00am 10.6 7.6 9.2 91 0.7 NW 15 20 8 11 1006.9 1006.8 0.0
28/06:30am 8.7 6.4 7.6 93 0.5 NW 9 13 5 7 1006.9 1006.8 0.0
28/06:00am 8.2 5.4 7.1 93 0.5 NNW 11 17 6 9 1006.5 1006.4 0.0
28/05:30am 7.6 5.5 6.5 93 0.5 NW 7 11 4 6 1006.5 1006.4 0.0
28/05:00am 8.1 6.2 6.7 91 0.6 NNW 6 6 3 3 1006.3 1006.2 0.0
28/04:30am 8.1 5.6 6.7 91 0.6 NW 9 9 5 5 1006.4 1006.3 0.0
28/04:00am 8.7 6.7 7.2 90 0.7 NW 7 9 4 5 1006.3 1006.2 0.0
28/03:30am 9.2 7.0 7.8 91 0.7 NW 9 13 5 7 1006.2 1006.1 0.0
28/03:00am 9.4 7.6 7.8 90 0.8 NW 7 11 4 6 1006.1 1006.0 0.0
28/02:30am 9.8 8.0 8.1 89 0.8 NW 7 9 4 5 1006.2 1006.1 0.0
28/02:00am 9.9 7.7 7.8 87 1.0 NW 9 13 5 7 1006.4 1006.3 0.0
28/01:30am 9.8 7.3 8.1 89 0.8 NW 11 13 6 7 1006.6 1006.5 0.0
28/01:00am 8.8 6.8 7.3 90 0.7 NNW 7 9 4 5 1006.7 1006.6 0.0
28/12:30am 8.9 6.1 7.0 88 0.9 WNW 11 13 6 7 1006.9 1006.8 0.0
28/12:00am 8.8 6.4 6.9 88 0.9 WNW 9 13 5 7 1006.9 1006.8 0.0
 
Date/Time
EDT
Temp
°C
App
Temp
°C
Dew
Point
°C
Rel
Hum
%
Delta-T
°C
Wind Press
QNH
hPa
Press
MSL
hPa
Rain since
9am
mm
Dir  Spd
km/h
Gust
km/h
Spd
kts
Gust
kts
27/11:30pm 10.3 7.2 7.4 82 1.4 W 13 20 7 11 1006.9 1006.8 0.0
27/11:00pm 10.0 7.0 7.9 87 1.0 W 13 20 7 11 1006.9 1006.8 0.0
27/10:30pm 10.2 7.3 8.0 86 1.1 W 13 17 7 9 1006.8 1006.7 0.0
27/10:00pm 11.1 7.0 7.8 80 1.6 W 19 28 10 15 1006.8 1006.7 0.0
27/09:30pm 11.9 6.7 7.4 74 2.2 WSW 24 33 13 18 1006.5 1006.4 0.0
27/09:00pm 11.8 6.6 7.1 73 2.3 WSW 24 35 13 19 1006.3 1006.2 0.0
27/08:30pm 12.5 7.8 7.6 72 2.4 W 22 32 12 17 1006.0 1005.9 0.0
27/08:00pm 12.9 8.3 8.2 73 2.3 WSW 22 32 12 17 1005.7 1005.6 0.0
27/07:30pm 12.9 7.9 9.5 80 1.7 WSW 26 35 14 19 1005.4 1005.3 0.0
27/07:00pm 12.7 8.5 9.9 83 1.4 W 22 33 12 18 1005.0 1004.9 0.0
27/06:30pm 12.9 7.8 9.2 78 1.9 W 26 35 14 19 1004.6 1004.5 0.0
27/06:01pm 12.3 6.6 9.7 84 1.3 WSW 30 50 16 27 1004.4 1004.3 0.0
27/06:00pm 12.3 6.2 9.7 84 1.3 WSW 32 50 17 27 1004.4 1004.3 0.0
27/05:30pm 14.2 8.7 10.4 78 2.0 WSW 30 39 16 21 1004.0 1003.9 0.0
27/05:00pm 15.3 10.6 10.5 73 2.5 W 26 39 14 21 1003.5 1003.4 0.0
27/04:30pm 16.7 11.0 11.0 69 3.1 W 32 41 17 22 1003.5 1003.4 0.0
27/04:00pm 16.3 11.2 10.6 69 3.0 W 28 37 15 20 1003.2 1003.1 0.0
27/03:30pm 16.5 11.6 11.2 71 2.9 W 28 39 15 21 1003.5 1003.4 0.0
27/03:00pm 16.1 11.4 11.9 76 2.3 W 28 41 15 22 1003.3 1003.2 0.0
27/02:30pm 17.4 11.9 11.7 69 3.1 W 32 43 17 23 1003.2 1003.1 0.0
27/02:00pm 15.9 10.6 11.3 74 2.5 W 30 43 16 23 1003.4 1003.3 0.0
27/01:30pm 16.5 12.3 11.2 71 2.9 W 24 32 13 17 1003.3 1003.2 0.0
27/01:00pm 15.6 10.1 10.6 72 2.7 W 30 39 16 21 1003.6 1003.5 0.0
27/12:30pm 16.6 12.5 12.6 77 2.2 W 26 37 14 20 1003.5 1003.4 0.0
27/12:00pm 15.6 10.3 11.2 75 2.4 W 30 39 16 21 1003.4 1003.3 0.0
27/11:30am 16.5 12.2 12.1 75 2.4 W 26 35 14 19 1003.3 1003.2 0.0
27/11:00am 16.0 11.9 11.6 75 2.4 W 24 33 13 18 1003.3 1003.2 0.0
27/10:30am 14.8 11.0 11.0 78 2.0 WSW 22 33 12 18 1003.4 1003.3 0.0
27/10:00am 16.0 12.4 11.8 76 2.3 W 22 32 12 17 1003.3 1003.2 0.0
27/09:30am 15.3 11.5 11.1 76 2.2 W 22 28 12 15 1003.3 1003.2 0.0
27/09:00am 15.5 12.9 12.1 80 1.9 WNW 17 22 9 12 1003.1 1003.0 0.2
27/08:30am 15.5 13.0 12.3 81 1.7 W 17 24 9 13 1003.0 1002.9 0.2
27/08:00am 14.7 12.1 12.0 84 1.5 W 17 22 9 12 1002.9 1002.8 0.2
27/07:30am 14.0 11.5 12.2 89 1.0 WSW 17 24 9 13 1002.8 1002.7 0.2
27/07:00am 14.1 10.9 12.0 87 1.1 WSW 20 30 11 16 1002.7 1002.6 0.2
27/06:30am 14.2 10.8 12.6 90 0.9 WSW 22 30 12 16 1002.5 1002.4 0.2
27/06:00am 14.1 11.3 12.7 91 0.8 W 19 28 10 15 1002.5 1002.4 0.2
27/05:30am 14.2 11.5 12.8 91 0.8 W 19 28 10 15 1002.4 1002.3 0.2
27/05:00am 13.8 12.0 12.0 89 1.0 WNW 13 19 7 10 1002.4 1002.3 0.2
27/04:30am 13.4 11.0 11.5 88 1.0 W 15 20 8 11 1002.3 1002.2 0.2
27/04:00am 13.7 11.4 11.9 89 1.0 W 15 20 8 11 1002.5 1002.4 0.2
27/03:30am 14.2 11.5 12.8 91 0.8 W 19 26 10 14 1002.4 1002.3 0.2
27/03:00am 14.3 12.0 13.0 92 0.7 W 17 24 9 13 1002.5 1002.4 0.2
27/02:30am 14.2 11.5 12.8 91 0.8 W 19 26 10 14 1002.8 1002.7 0.2
27/02:00am 15.0 11.1 13.2 89 1.0 WSW 26 35 14 19 1002.9 1002.8 0.2
27/01:30am 15.3 11.9 13.7 90 0.9 WSW 24 33 13 18 1002.8 1002.7 0.2
27/01:00am 15.9 12.9 13.6 86 1.3 WSW 22 32 12 17 1002.8 1002.7 0.2
27/12:42am 16.6 13.8 13.3 81 1.8 W 20 39 11 21 1002.8 1002.7 0.2
27/12:30am 16.9 17.2 15.1 89 1.0 NW 7 11 4 6 1002.2 1002.1 0.2
27/12:00am 16.7 17.0 14.9 89 1.0 NW 7 11 4 6 1002.4 1002.3 0.2
 
Date/Time
EDT
Temp
°C
App
Temp
°C
Dew
Point
°C
Rel
Hum
%
Delta-T
°C
Wind Press
QNH
hPa
Press
MSL
hPa
Rain since
9am
mm
Dir  Spd
km/h
Gust
km/h
Spd
kts
Gust
kts
26/11:30pm 16.9 18.2 15.1 89 1.0 N 2 4 1 2 1002.2 1002.1 0.2
26/11:00pm 17.6 17.0 14.7 83 1.7 NNW 11 17 6 9 1002.5 1002.4 0.2
26/10:30pm 16.6 17.4 14.8 89 1.0 N 4 6 2 3 1003.1 1003.0 0.2
26/10:00pm 16.5 17.9 14.3 87 1.3 CALM 0 2 0 1 1003.3 1003.2 0.2
26/09:30pm 16.3 15.8 13.8 85 1.4 E 9 13 5 7 1003.7 1003.6 0.0
26/09:00pm 16.4 16.3 13.9 85 1.4 NW 7 20 4 11 1003.9 1003.8 0.0
26/08:30pm 16.9 16.0 13.6 81 1.9 E 11 17 6 9 1002.5 1002.4 0.0
26/08:00pm 17.2 15.5 13.7 80 2.0 ENE 15 24 8 13 1002.2 1002.1 0.0
26/07:30pm 17.4 15.1 13.1 76 2.4 E 17 26 9 14 1002.2 1002.1 0.0
26/07:00pm 17.3 15.8 13.0 76 2.4 E 13 24 7 13 1002.4 1002.3 0.0
26/06:30pm 17.2 15.5 13.7 80 2.0 E 15 24 8 13 1002.6 1002.5 0.0
26/06:00pm 17.6 15.7 14.1 80 2.0 E 17 26 9 14 1002.8 1002.7 0.0
26/05:30pm 17.6 15.7 14.1 80 2.0 E 17 26 9 14 1003.0 1002.9 0.0
26/05:00pm 18.9 16.8 14.8 77 2.4 E 19 32 10 17 1003.4 1003.3 0.0
26/04:30pm 17.5 15.2 14.0 80 2.0 E 19 28 10 15 1003.9 1003.8 0.0
26/04:00pm 18.3 15.9 14.4 78 2.3 E 20 30 11 16 1004.7 1004.6 0.0
26/03:30pm 17.9 14.9 13.8 77 2.3 E 22 33 12 18 1005.2 1005.1 0.0

Other formats

Comma delimited format used in spreadsheet applications
http://www.bom.gov.au/fwo/IDV60801/IDV60801.94911.axf

JavaScript Object Notation format (JSON) in row-major order
http://www.bom.gov.au/fwo/IDV60801/IDV60801.94911.json

Data quality

Most of these data are generated automatically and are frequently updated. Quality checks on data are not normally performed. It is possible for incorrect values to appear. Refer to information at About Latest Weather Observations and please check the disclaimer before using these data.